Архив погоды в Макушине

Метеограмма Макушино
Понедельник, 20 Августа
Время местн. Темп Ветер Видим Явления Облачность нижн/средн/верх Атм. давл. Влжн Точка росы ВНГО R Сост. почвы Tg s
Напр Скр Прв ур.ст ур.м изм
20:00 +10.5° С 5 - 4 км слабый ливневый дождь облачно 743 756 -0.6 93% +9.4° 1.5 км 9 - - -
17:00 +10.7° С 4 - 2 км умеренный или сильный ливневый дождь облачно 744 756 -0.4 90% +9.1° 1.5 км - - - -
14:00 +12° С 3 - 4 км слабый ливневый дождь облачно 744 757 -0.8 83% +9.2° 1.5 км - - - -
11:00 +12.6° С 4 - 4 км слабый ливневый дождь облачно 745 757 -0.7 87% +10.5° 1 км - - - -
08:00 +11.8° С 2 - 4 км слабый ливневый дождь облачно 746 758 -0.2 85% +9.3° 1 км 0.3 Влажная (без луж) +11° -
05:00 +11.6° С 2 - 50 км - облачно 746 758 -0.8 83% +8.8° 1.5 км - - - -
02:00 +12.1° С,С-В 3 - 50 км - облачно 747 759 -0.9 79% +8.5° 1.5 км - - - -
Воскресенье, 19 Августа
Время местн. Темп Ветер Видим Явления Облачность нижн/средн/верх Атм. давл. Влжн Точка росы ВНГО R Сост. почвы Tg s
Напр Скр Прв ур.ст ур.м изм
23:00 +12.1° С 1 - 50 км - облачно 748 760 -0.2 87% +10° 1.5 км - - - -
20:00 +13.7° С,С-В 2 - 20 км - облачно 748 760 -0.4 71% +8.6° 1 км 0 - - -
17:00 +14.6° С-В 4 - 20 км - преимущественно облачно 748 761 0 64% +7.9° 1 км - - - -
14:00 +15.3° С-В 5 - 20 км - преимущественно облачно 748 761 -0.4 60% +7.5° 1 км - - - -
11:00 +13.2° С,С-В 3 - 20 км - облачно 749 761 +0.1 70% +7.8° 1 км - - - -
08:00 +12° С 3 - 20 км - облачно 749 761 +0.1 78% +8.3° 1.5 км 0 Сухая (без трещин) - -
05:00 +11.4° С 2 - 50 км - облачно 749 761 +0.2 80% +8° 1.5 км - - - -
02:00 +11.8° С 2 - 50 км - облачно 749 761 -0.2 86% +9.6° 1.5 км - - - -
Суббота, 18 Августа
Время местн. Темп Ветер Видим Явления Облачность нижн/средн/верх Атм. давл. Влжн Точка росы ВНГО R Сост. почвы Tg s
Напр Скр Прв ур.ст ур.м изм
23:00 +11.7° С-З 3 - 50 км - облачно 749 761 +0.1 86% +9.5° 1.5 км - - - -
20:00 +12.5° С-З 4 - 20 км - облачно с прояснениями 749 761 +0.6 79% +8.9° 1 км 0 - - -
17:00 +15.1° З,С-З 4 - 20 км - преимущественно облачно 748 761 +0.3 62% +7.9° 1.5 км - - - -
14:00 +15.3° З,С-З 4 - 20 км - преимущественно облачно 748 760 +0.2 63% +8.4° 1.5 км - - - -
11:00 +13.4° З 5 - 20 км - облачно 748 760 +0.7 72% +8.5° 1.5 км - - - -
08:00 +13° З 5 - 20 км - переменная облачность 747 759 +0.7 75% +8.7° 1.5 км 0 Сухая (без трещин) - -
05:00 +10.5° З 3 - 20 км - незначительная облачность 746 759 +0.7 90% +9° 1 км - - - -
02:00 +12.1° З 2 - 50 км - ясно 746 758 +0.2 88% +10.2° более 2.5 км - - - -
Пятница, 17 Августа
Время местн. Темп Ветер Видим Явления Облачность нижн/средн/верх Атм. давл. Влжн Точка росы ВНГО R Сост. почвы Tg s
Напр Скр Прв ур.ст ур.м изм
23:00 +13.2° З 3 - 50 км - ясно 746 758 +1 83% +10.4° более 2.5 км - - - -
20:00 +19.4° З,С-З 4 - 20 км - облачно с прояснениями 745 757 +0.8 70% +13.7° 1 км 0 - - -
17:00 +23.3° З 7 10 20 км гроза без осадков облачно с прояснениями 744 756 -0.5 57% +14.3° 1 км - - - -